Time;durP1;ratioP1;P1;durP2;ratioP2;P2;SDS_P1;SDS_P2;PMS_P1;PMS_P2;Temp;Humidity;BMP_temperature;BMP_pressure;BME280_temperature;BME280_humidity;BME280_pressure;Samples;Min_cycle;Max_cycle;Signal;HPM_P1;HPM_P2
2022/06/19 00:01:15;;;;;;;7.93;2.53;;;15.90;99.90;;;;;;5043948;28;20219;-45
2022/06/19 00:03:46;;;;;;;12.13;2.97;;;15.90;99.90;;;;;;5036446;28;20195;-46
2022/06/19 00:06:14;;;;;;;13.53;4.07;;;15.90;99.90;;;;;;5043634;28;20260;-44
2022/06/19 00:08:41;;;;;;;9.67;2.70;;;15.90;99.90;;;;;;5043782;28;20191;-44
2022/06/19 00:11:11;;;;;;;10.17;2.70;;;15.80;99.90;;;;;;5031082;28;20223;-46
2022/06/19 00:13:38;;;;;;;12.93;2.50;;;15.80;99.90;;;;;;5041500;28;20206;-45
2022/06/19 00:16:05;;;;;;;9.80;2.93;;;15.80;99.90;;;;;;5045609;28;20651;-46
2022/06/19 00:18:34;;;;;;;9.20;2.63;;;15.70;99.90;;;;;;5033575;28;20942;-44
2022/06/19 00:21:01;;;;;;;7.23;2.30;;;15.70;99.90;;;;;;5044079;28;20243;-44
2022/06/19 00:23:29;;;;;;;14.83;2.70;;;15.60;99.90;;;;;;5040900;28;20195;-44
2022/06/19 00:25:56;;;;;;;12.53;2.73;;;15.60;99.90;;;;;;5030953;28;20261;-45
2022/06/19 00:28:24;;;;;;;9.30;2.30;;;15.60;99.90;;;;;;5041844;28;20256;-46
2022/06/19 00:30:51;;;;;;;9.90;2.63;;;15.70;99.90;;;;;;5045051;28;20719;-46
2022/06/19 00:33:19;;;;;;;11.67;2.90;;;15.60;99.90;;;;;;5038673;28;20204;-44
2022/06/19 00:35:46;;;;;;;11.50;2.43;;;15.70;99.90;;;;;;5034957;28;20316;-44
2022/06/19 00:38:13;;;;;;;12.93;2.47;;;15.60;99.90;;;;;;5043882;28;20587;-44
2022/06/19 00:40:41;;;;;;;13.93;3.20;;;15.60;99.90;;;;;;5028185;28;20234;-44
2022/06/19 00:43:08;;;;;;;15.10;2.63;;;15.60;99.90;;;;;;5044529;28;20695;-45
2022/06/19 00:45:40;;;;;;;15.90;2.80;;;15.60;99.90;;;;;;5041133;28;20195;-45
2022/06/19 00:48:12;;;;;;;9.23;2.47;;;15.70;99.90;;;;;;5044989;28;20797;-45
2022/06/19 00:50:40;;;;;;;11.17;2.40;;;15.60;99.90;;;;;;5035130;28;20215;-44
2022/06/19 00:53:11;;;;;;;9.07;2.37;;;15.60;99.90;;;;;;5044641;28;20278;-44
2022/06/19 00:55:41;;;;;;;11.40;2.93;;;15.60;99.90;;;;;;5021284;28;20856;-44
2022/06/19 00:58:12;;;;;;;13.80;2.80;;;15.60;99.90;;;;;;5044279;28;20228;-44
2022/06/19 01:00:42;;;;;;;12.93;2.23;;;15.60;99.90;;;;;;5042087;28;20293;-44
2022/06/19 01:03:15;;;;;;;8.53;2.47;;;15.60;99.90;;;;;;5040082;28;20326;-45
2022/06/19 01:05:44;;;;;;;8.40;2.90;;;15.60;99.90;;;;;;5034812;28;20956;-43
2022/06/19 01:08:11;;;;;;;13.53;2.87;;;15.60;99.90;;;;;;5043694;28;20199;-47
2022/06/19 01:10:42;;;;;;;13.30;2.37;;;15.50;99.90;;;;;;5042005;28;20941;-44
2022/06/19 01:13:09;;;;;;;13.53;2.53;;;15.50;99.90;;;;;;5029723;28;20774;-44
2022/06/19 01:15:41;;;;;;;13.23;3.27;;;15.50;99.90;;;;;;5041224;28;20200;-44
2022/06/19 01:18:09;;;;;;;16.50;3.13;;;15.50;99.90;;;;;;5044160;28;20207;-45
2022/06/19 01:20:38;;;;;;;9.60;2.50;;;15.40;99.90;;;;;;5025820;28;20951;-45
2022/06/19 01:23:14;;;;;;;11.93;2.70;;;15.50;99.90;;;;;;5044182;28;20207;-44
2022/06/19 01:25:44;;;;;;;11.67;2.30;;;15.40;99.90;;;;;;5041124;28;20194;-44
2022/06/19 01:31:00;;;;;;;16.20;3.37;;;15.40;99.90;;;;;;5038673;28;20223;-44
2022/06/19 01:33:34;;;;;;;10.47;2.20;;;15.30;99.90;;;;;;5034758;28;20196;-45
2022/06/19 01:36:03;;;;;;;9.23;2.60;;;15.30;99.90;;;;;;5034579;28;20208;-47
2022/06/19 01:38:33;;;;;;;9.17;2.40;;;15.30;99.90;;;;;;5038703;28;20191;-45
2022/06/19 01:41:07;;;;;;;8.17;2.60;;;15.30;99.90;;;;;;5043796;28;20226;-44
2022/06/19 01:43:35;;;;;;;11.43;2.67;;;15.20;99.90;;;;;;5025186;28;20219;-44
2022/06/19 01:46:04;;;;;;;9.47;2.50;;;15.20;99.90;;;;;;5043583;28;20700;-45
2022/06/19 01:48:33;;;;;;;10.37;2.60;;;15.10;99.90;;;;;;5039803;28;20203;-44
2022/06/19 01:51:03;;;;;;;12.57;2.53;;;15.10;99.90;;;;;;5043615;28;20219;-44
2022/06/19 01:53:35;;;;;;;9.80;2.30;;;15.10;99.90;;;;;;5032251;28;20191;-48
2022/06/19 01:56:06;;;;;;;19.53;3.77;;;15.00;99.90;;;;;;5043613;28;20249;-45
2022/06/19 01:58:35;;;;;;;11.80;2.67;;;15.00;99.90;;;;;;5025669;28;21346;-46
2022/06/19 02:01:04;;;;;;;12.90;3.07;;;15.00;99.90;;;;;;5043394;28;20639;-45
2022/06/19 02:03:36;;;;;;;13.87;2.60;;;14.90;99.90;;;;;;5038535;28;21035;-48
2022/06/19 02:06:04;;;;;;;10.73;2.70;;;15.00;99.90;;;;;;5037348;28;20211;-46
2022/06/19 02:08:33;;;;;;;11.77;2.83;;;15.00;99.90;;;;;;5032041;28;20203;-45
2022/06/19 02:11:01;;;;;;;14.87;3.20;;;14.90;99.90;;;;;;5043557;28;20218;-45
2022/06/19 02:13:32;;;;;;;18.97;3.23;;;14.70;99.90;;;;;;5039122;28;20886;-45
2022/06/19 02:15:59;;;;;;;12.00;3.30;;;14.90;99.90;;;;;;5028688;28;20210;-45
2022/06/19 02:18:30;;;;;;;9.73;2.93;;;14.80;99.90;;;;;;5039555;28;20557;-45
2022/06/19 02:20:57;;;;;;;9.40;2.90;;;14.80;99.90;;;;;;5042048;28;20313;-45
2022/06/19 02:23:35;;;;;;;11.77;2.50;;;14.80;99.90;;;;;;5026431;28;20235;-48
2022/06/19 02:26:04;;;;;;;13.03;3.23;;;14.80;99.90;;;;;;5043372;28;20213;-45
2022/06/19 02:28:36;;;;;;;10.40;2.60;;;14.70;99.90;;;;;;5039417;28;20192;-45
2022/06/19 02:31:06;;;;;;;14.00;2.77;;;14.80;99.90;;;;;;5029116;28;20223;-45
2022/06/19 02:33:40;;;;;;;13.10;2.80;;;14.70;99.90;;;;;;5035769;28;20194;-49
2022/06/19 02:36:37;;;;;;;9.23;2.20;;;14.80;99.90;;;;;;5044108;28;20301;-45
2022/06/19 02:39:18;;;;;;;14.30;3.13;;;14.70;99.90;;;;;;5036290;28;20218;-45
2022/06/19 02:41:50;;;;;;;15.37;3.00;;;14.70;99.90;;;;;;5045625;28;20289;-45
2022/06/19 02:44:19;;;;;;;14.00;3.10;;;14.70;99.90;;;;;;5045082;28;20668;-45
2022/06/19 02:46:45;;;;;;;15.70;3.07;;;14.80;99.90;;;;;;5030624;28;21035;-45
2022/06/19 02:49:13;;;;;;;11.40;2.53;;;14.70;99.90;;;;;;5045883;28;20203;-47
2022/06/19 02:51:40;;;;;;;8.87;2.23;;;14.70;99.90;;;;;;5044256;28;20222;-45
2022/06/19 02:54:07;;;;;;;9.60;2.63;;;14.70;99.90;;;;;;5039095;28;20206;-46
2022/06/19 02:56:33;;;;;;;13.87;2.80;;;14.70;99.90;;;;;;5043100;28;20195;-46
2022/06/19 02:59:00;;;;;;;11.37;2.40;;;14.60;99.90;;;;;;5046862;28;20275;-45
2022/06/19 03:01:29;;;;;;;11.40;2.63;;;14.50;99.90;;;;;;5043014;28;21001;-45
2022/06/19 03:03:56;;;;;;;16.10;3.00;;;14.50;99.90;;;;;;5032384;28;20305;-46
2022/06/19 03:06:22;;;;;;;12.23;2.80;;;14.50;99.90;;;;;;5043415;28;20211;-48
2022/06/19 03:08:50;;;;;;;12.70;2.43;;;14.50;99.90;;;;;;5046354;28;20266;-45
2022/06/19 03:11:17;;;;;;;8.77;2.40;;;14.50;99.90;;;;;;5034556;28;20227;-45
2022/06/19 03:13:43;;;;;;;12.57;2.83;;;14.50;99.90;;;;;;5044698;28;20269;-45
2022/06/19 03:16:11;;;;;;;19.43;4.70;;;14.50;99.90;;;;;;5046042;28;20203;-47
2022/06/19 03:18:39;;;;;;;14.40;2.90;;;14.50;99.90;;;;;;5029691;28;20207;-45
2022/06/19 03:21:07;;;;;;;12.47;3.10;;;14.50;99.90;;;;;;5046452;28;20618;-46
2022/06/19 03:23:34;;;;;;;10.97;2.83;;;14.50;99.90;;;;;;5042204;28;20211;-45
2022/06/19 03:26:01;;;;;;;16.13;3.30;;;14.40;99.90;;;;;;5034753;28;20254;-45
2022/06/19 03:28:29;;;;;;;9.67;3.50;;;14.40;99.90;;;;;;5040920;28;20257;-47
2022/06/19 03:30:56;;;;;;;10.90;2.53;;;14.40;99.90;;;;;;5046761;28;20311;-45
2022/06/19 03:33:23;;;;;;;11.10;3.60;;;14.40;99.90;;;;;;5031392;28;20253;-47
2022/06/19 03:35:52;;;;;;;10.37;2.73;;;14.40;99.90;;;;;;5044507;28;20706;-45
2022/06/19 03:38:20;;;;;;;14.67;3.60;;;14.40;99.90;;;;;;5043576;28;20203;-47
2022/06/19 03:40:47;;;;;;;14.97;2.90;;;14.40;99.90;;;;;;5045393;28;20739;-44
2022/06/19 03:43:14;;;;;;;9.70;2.90;;;14.40;99.90;;;;;;5034330;28;20598;-47
2022/06/19 03:45:40;;;;;;;21.00;2.60;;;14.40;99.90;;;;;;5043809;28;20191;-45
2022/06/19 03:48:09;;;;;;;11.63;2.93;;;14.50;99.90;;;;;;5044956;28;20217;-46
2022/06/19 03:50:36;;;;;;;16.10;2.83;;;14.40;99.90;;;;;;5028247;28;20964;-46
2022/06/19 03:53:03;;;;;;;10.47;2.27;;;14.50;99.90;;;;;;5045861;28;20241;-44
2022/06/19 03:55:30;;;;;;;14.80;3.20;;;14.50;99.90;;;;;;5041706;28;20207;-44
2022/06/19 03:57:57;;;;;;;14.83;3.13;;;14.50;99.90;;;;;;5039105;28;20195;-45
2022/06/19 04:00:24;;;;;;;11.17;2.80;;;14.50;99.90;;;;;;5042258;28;20199;-45
2022/06/19 04:02:51;;;;;;;14.53;2.70;;;14.50;99.90;;;;;;5044275;28;20229;-46
2022/06/19 04:05:18;;;;;;;9.73;2.83;;;14.60;99.90;;;;;;5027081;28;20211;-49
2022/06/19 04:07:47;;;;;;;13.90;2.67;;;14.60;99.90;;;;;;5044219;28;20442;-47
2022/06/19 04:10:17;;;;;;;12.40;3.73;;;14.70;99.90;;;;;;5044205;28;20214;-42
2022/06/19 04:12:44;;;;;;;17.57;3.27;;;14.70;99.90;;;;;;5034791;28;20203;-46
2022/06/19 04:15:12;;;;;;;14.50;3.20;;;14.70;99.90;;;;;;5043286;28;20278;-45
2022/06/19 04:17:40;;;;;;;13.70;2.43;;;14.80;99.90;;;;;;5043177;28;20218;-45
2022/06/19 04:20:09;;;;;;;15.10;2.93;;;14.70;99.90;;;;;;5031397;28;20285;-46
2022/06/19 04:22:37;;;;;;;17.97;3.50;;;14.80;99.90;;;;;;5041850;28;20215;-49
2022/06/19 04:25:05;;;;;;;13.63;3.13;;;14.80;99.90;;;;;;5045130;28;20199;-49
2022/06/19 04:27:34;;;;;;;10.27;2.63;;;14.80;99.90;;;;;;5033465;28;21902;-43
2022/06/19 04:30:02;;;;;;;14.07;3.17;;;14.90;99.90;;;;;;5045022;28;20202;-44
2022/06/19 04:32:30;;;;;;;12.17;2.97;;;14.80;99.90;;;;;;5040926;28;20280;-43
2022/06/19 04:34:57;;;;;;;13.13;3.13;;;14.80;99.90;;;;;;5044858;28;20214;-43
2022/06/19 04:37:24;;;;;;;17.90;3.33;;;14.80;99.90;;;;;;5026947;28;20207;-44
2022/06/19 04:39:51;;;;;;;15.53;3.30;;;14.90;99.90;;;;;;5045033;28;20203;-43
2022/06/19 04:42:18;;;;;;;14.43;3.43;;;14.90;99.90;;;;;;5042849;28;20249;-47
2022/06/19 04:44:46;;;;;;;10.70;2.90;;;14.90;99.90;;;;;;5031526;28;20228;-43
2022/06/19 04:47:13;;;;;;;11.77;3.10;;;14.90;99.90;;;;;;5043810;28;20210;-48
2022/06/19 04:49:40;;;;;;;12.60;3.00;;;15.00;99.90;;;;;;5042589;28;20191;-45
2022/06/19 04:52:07;;;;;;;9.43;2.73;;;15.00;99.90;;;;;;5030649;28;20708;-44
2022/06/19 04:54:34;;;;;;;13.67;3.23;;;15.00;99.90;;;;;;5040794;28;20266;-46
2022/06/19 04:57:01;;;;;;;13.87;3.77;;;15.00;99.90;;;;;;5044910;28;20195;-44
2022/06/19 04:59:28;;;;;;;11.60;3.23;;;15.00;99.90;;;;;;5031149;28;20202;-44
2022/06/19 05:01:56;;;;;;;11.10;3.67;;;15.10;99.90;;;;;;5044743;28;20272;-46
2022/06/19 05:04:23;;;;;;;14.80;2.87;;;15.10;99.90;;;;;;5040560;28;20219;-45
2022/06/19 05:06:50;;;;;;;14.30;3.23;;;15.20;99.90;;;;;;5023568;28;20218;-44
2022/06/19 05:09:18;;;;;;;10.63;3.23;;;15.20;99.90;;;;;;5042453;28;20749;-45
2022/06/19 05:11:45;;;;;;;15.20;3.37;;;15.30;99.90;;;;;;5042897;28;20218;-47
2022/06/19 05:14:12;;;;;;;13.80;2.77;;;15.30;99.90;;;;;;5041768;28;20207;-46
2022/06/19 05:16:40;;;;;;;13.57;3.20;;;15.30;99.90;;;;;;5037839;28;20261;-45
2022/06/19 05:19:11;;;;;;;10.87;3.17;;;15.20;99.90;;;;;;5044404;28;20204;-48
2022/06/19 05:21:38;;;;;;;12.07;3.20;;;15.20;99.90;;;;;;5041649;28;20227;-44
2022/06/19 05:24:05;;;;;;;10.43;3.00;;;15.20;99.90;;;;;;5029836;28;20223;-45
2022/06/19 05:26:34;;;;;;;17.03;3.17;;;15.20;99.90;;;;;;5039866;28;20903;-45
2022/06/19 05:29:03;;;;;;;11.00;3.37;;;15.20;99.90;;;;;;5044362;28;20199;-45
2022/06/19 05:31:31;;;;;;;11.53;2.80;;;15.20;99.90;;;;;;5030954;28;20973;-45
2022/06/19 05:33:59;;;;;;;12.47;3.10;;;15.20;99.90;;;;;;5033390;28;20227;-46
2022/06/19 05:36:29;;;;;;;20.00;3.77;;;15.20;99.90;;;;;;5037324;28;20199;-46
2022/06/19 05:38:56;;;;;;;12.67;3.27;;;15.20;99.90;;;;;;5023643;28;20287;-44
2022/06/19 05:41:24;;;;;;;15.57;3.10;;;15.30;99.90;;;;;;5040362;28;20270;-47
2022/06/19 05:43:51;;;;;;;11.20;3.00;;;15.30;99.90;;;;;;5043388;28;20223;-47
2022/06/19 05:46:20;;;;;;;13.87;3.43;;;15.30;99.90;;;;;;5037703;28;20202;-46
2022/06/19 05:48:48;;;;;;;8.60;2.93;;;15.40;99.90;;;;;;5036200;28;20214;-46
2022/06/19 05:51:17;;;;;;;12.50;2.80;;;15.50;99.90;;;;;;5042248;28;20227;-47
2022/06/19 05:53:49;;;;;;;13.43;3.30;;;15.50;99.90;;;;;;5027673;28;20200;-47
2022/06/19 05:56:17;;;;;;;7.60;2.90;;;15.60;99.90;;;;;;5041392;28;20199;-48
2022/06/19 05:58:44;;;;;;;10.63;3.53;;;15.60;99.90;;;;;;5041996;28;20202;-46
2022/06/19 06:01:12;;;;;;;12.83;2.60;;;15.60;99.90;;;;;;5041653;28;20277;-45
2022/06/19 06:03:41;;;;;;;16.07;3.07;;;15.60;99.90;;;;;;5033441;28;20597;-44
2022/06/19 06:06:12;;;;;;;13.67;3.13;;;15.60;99.90;;;;;;5042796;28;20230;-49
2022/06/19 06:08:40;;;;;;;11.23;2.80;;;15.60;99.90;;;;;;5026921;28;21212;-49
2022/06/19 06:11:09;;;;;;;9.37;3.53;;;15.60;99.90;;;;;;5042598;28;20215;-44
2022/06/19 06:13:36;;;;;;;13.13;3.30;;;15.60;99.90;;;;;;5039915;28;20226;-46
2022/06/19 06:16:04;;;;;;;16.63;3.20;;;15.60;99.90;;;;;;5043518;28;20203;-44
2022/06/19 06:18:32;;;;;;;9.17;2.80;;;15.60;99.90;;;;;;5026256;28;20277;-46
2022/06/19 06:21:01;;;;;;;16.80;4.67;;;15.60;99.90;;;;;;5043508;28;20249;-45
2022/06/19 06:23:29;;;;;;;9.10;2.83;;;15.60;99.90;;;;;;5038962;28;20211;-48
2022/06/19 06:26:00;;;;;;;8.40;2.20;;;15.60;99.90;;;;;;5029346;28;20203;-47
2022/06/19 06:28:30;;;;;;;8.33;2.40;;;15.60;99.90;;;;;;5039113;28;20215;-48
2022/06/19 06:30:57;;;;;;;8.87;2.67;;;15.70;99.90;;;;;;5043326;28;20704;-48
2022/06/19 06:33:25;;;;;;;9.30;2.10;;;15.80;99.90;;;;;;5032544;28;20200;-48
2022/06/19 06:35:52;;;;;;;5.83;2.17;;;15.80;99.90;;;;;;5042637;28;20290;-46
2022/06/19 06:38:19;;;;;;;10.43;2.20;;;15.90;99.90;;;;;;5041091;28;20660;-45
2022/06/19 06:40:46;;;;;;;6.60;2.30;;;15.90;99.90;;;;;;5027808;28;20231;-46
2022/06/19 06:43:13;;;;;;;5.47;1.60;;;16.00;99.90;;;;;;5041293;28;20212;-46
2022/06/19 06:45:42;;;;;;;5.83;2.07;;;16.00;99.90;;;;;;5040828;28;20195;-46
2022/06/19 06:48:09;;;;;;;5.93;1.50;;;16.10;99.90;;;;;;5042470;28;20721;-46
2022/06/19 06:50:39;;;;;;;6.80;1.83;;;16.10;99.90;;;;;;5034288;28;20795;-49
2022/06/19 06:53:06;;;;;;;3.43;1.40;;;16.10;99.90;;;;;;5043240;28;20545;-45
2022/06/19 06:55:33;;;;;;;5.70;1.90;;;16.20;99.90;;;;;;5039156;28;20836;-48
2022/06/19 06:58:00;;;;;;;7.40;2.00;;;16.20;99.90;;;;;;5028758;28;20220;-45
2022/06/19 07:00:27;;;;;;;6.53;1.97;;;16.30;99.90;;;;;;5038580;28;20209;-46
2022/06/19 07:02:56;;;;;;;5.67;1.60;;;16.30;99.90;;;;;;5041142;28;20215;-44
2022/06/19 07:05:22;;;;;;;7.43;2.07;;;16.40;99.90;;;;;;5025901;28;20234;-46
2022/06/19 07:07:49;;;;;;;5.93;1.60;;;16.50;99.90;;;;;;5042358;28;20214;-46
2022/06/19 07:10:16;;;;;;;4.93;1.77;;;16.60;99.90;;;;;;5041006;28;20200;-44
2022/06/19 07:12:43;;;;;;;4.90;1.67;;;16.80;99.90;;;;;;5026760;28;22072;-45
2022/06/19 07:15:12;;;;;;;4.13;1.43;;;16.90;99.90;;;;;;5041693;28;20218;-52
2022/06/19 07:17:39;;;;;;;6.13;1.60;;;16.90;99.90;;;;;;5039933;28;20191;-45
2022/06/19 07:20:09;;;;;;;3.30;1.53;;;16.90;99.90;;;;;;5035813;28;20237;-45
2022/06/19 07:22:36;;;;;;;5.27;1.10;;;17.00;99.90;;;;;;5041355;28;20198;-45
2022/06/19 07:25:04;;;;;;;3.07;1.70;;;17.00;99.90;;;;;;5046257;28;20276;-46
2022/06/19 07:27:32;;;;;;;4.23;1.20;;;17.00;99.90;;;;;;5042471;28;20191;-45
2022/06/19 07:29:59;;;;;;;4.07;1.40;;;17.10;99.90;;;;;;5032174;28;20211;-46
2022/06/19 07:32:26;;;;;;;5.47;1.20;;;17.10;99.90;;;;;;5042320;28;20745;-46
2022/06/19 07:34:53;;;;;;;5.17;1.43;;;17.20;99.90;;;;;;5041147;28;20242;-45
2022/06/19 07:37:21;;;;;;;4.90;1.90;;;17.30;99.90;;;;;;5030540;28;20660;-45
2022/06/19 07:39:48;;;;;;;4.27;1.40;;;17.30;99.90;;;;;;5045617;28;20203;-44
2022/06/19 07:42:15;;;;;;;3.93;1.70;;;17.40;99.90;;;;;;5044519;28;20223;-45
2022/06/19 07:44:42;;;;;;;3.27;1.40;;;17.40;99.90;;;;;;5029333;28;20230;-45
2022/06/19 07:50:13;;;;;;;3.73;1.33;;;17.30;99.90;;;;;;5040463;28;20195;-46
2022/06/19 07:52:43;;;;;;;5.87;1.70;;;17.30;99.90;;;;;;5037895;28;20207;-46
2022/06/19 07:55:13;;;;;;;4.23;1.60;;;17.30;99.90;;;;;;5045244;28;20648;-47
2022/06/19 07:57:40;;;;;;;5.43;1.17;;;17.40;99.90;;;;;;5043390;28;20640;-45
2022/06/19 08:00:09;;;;;;;5.67;1.40;;;17.50;99.90;;;;;;5031911;28;20257;-46
2022/06/19 08:02:36;;;;;;;6.37;1.80;;;17.50;99.90;;;;;;5042193;28;20276;-46
2022/06/19 08:05:05;;;;;;;3.27;1.57;;;17.50;99.90;;;;;;5042643;28;20211;-45
2022/06/19 08:07:33;;;;;;;3.77;1.20;;;17.60;99.90;;;;;;5034366;28;20206;-46
2022/06/19 08:10:01;;;;;;;5.33;1.30;;;17.60;99.90;;;;;;5045801;28;20199;-45
2022/06/19 08:12:28;;;;;;;3.27;1.30;;;17.50;99.90;;;;;;5041711;28;20926;-46
2022/06/19 08:14:55;;;;;;;2.80;1.10;;;17.50;99.90;;;;;;5045613;28;20713;-47
2022/06/19 08:17:22;;;;;;;2.40;1.13;;;17.50;99.90;;;;;;5027755;28;20211;-46
2022/06/19 08:19:49;;;;;;;2.97;1.03;;;17.50;99.90;;;;;;5044869;28;20252;-48
2022/06/19 08:22:16;;;;;;;4.90;1.50;;;17.50;99.90;;;;;;5036318;28;20238;-46
2022/06/19 08:24:42;;;;;;;3.03;1.10;;;17.60;99.90;;;;;;5042957;28;20280;-45
2022/06/19 08:27:10;;;;;;;2.60;1.00;;;17.70;99.90;;;;;;5045146;28;20207;-46
2022/06/19 08:29:37;;;;;;;3.07;1.20;;;17.70;99.90;;;;;;5042347;28;20196;-46
2022/06/19 08:32:05;;;;;;;3.97;1.33;;;17.80;99.90;;;;;;5031093;28;20293;-50
2022/06/19 08:34:32;;;;;;;5.07;1.30;;;17.70;99.90;;;;;;5035280;28;20183;-47
2022/06/19 08:37:02;;;;;;;7.33;1.40;;;17.80;99.90;;;;;;5038036;28;20195;-47
2022/06/19 08:39:30;;;;;;;4.00;1.20;;;17.80;99.90;;;;;;5040785;28;20219;-46
2022/06/19 08:42:40;;;;;;;4.93;1.73;;;17.80;99.90;;;;;;5045128;28;20747;-45
2022/06/19 08:45:29;;;;;;;5.83;1.73;;;17.80;99.90;;;;;;5036707;28;20234;-46
2022/06/19 08:48:15;;;;;;;2.73;1.53;;;17.90;99.90;;;;;;5030793;28;20207;-45
2022/06/19 08:50:49;;;;;;;5.07;1.30;;;17.90;99.90;;;;;;5039879;28;20223;-46
2022/06/19 08:53:29;;;;;;;3.60;1.23;;;18.00;99.90;;;;;;5035945;28;20210;-44
2022/06/19 08:56:02;;;;;;;4.10;1.17;;;18.10;99.90;;;;;;5044927;28;20199;-44
2022/06/19 08:58:39;;;;;;;3.00;1.33;;;18.20;99.90;;;;;;5040632;28;20337;-45
2022/06/19 09:01:17;;;;;;;4.67;1.73;;;18.40;99.90;;;;;;5038290;28;20218;-44
2022/06/19 09:06:43;;;;;;;7.53;1.47;;;18.40;99.90;;;;;;5041247;28;20230;-50
2022/06/19 09:09:34;;;;;;;2.93;1.63;;;18.40;99.90;;;;;;5035835;28;20207;-47
2022/06/19 09:12:21;;;;;;;3.57;1.33;;;18.40;99.90;;;;;;5040511;28;20688;-48
2022/06/19 09:15:01;;;;;;;5.60;1.83;;;18.50;99.90;;;;;;5043487;28;20198;-45
2022/06/19 09:17:33;;;;;;;2.27;0.93;;;18.40;99.90;;;;;;5019951;28;21728;-46
2022/06/19 09:20:08;;;;;;;3.57;1.20;;;18.50;99.90;;;;;;5038588;28;20203;-50
2022/06/19 09:22:50;;;;;;;3.97;1.50;;;18.60;99.90;;;;;;5032683;28;20311;-46
2022/06/19 09:25:32;;;;;;;6.67;1.43;;;18.70;99.90;;;;;;5039284;28;20227;-46
2022/06/19 09:28:06;;;;;;;4.83;1.30;;;18.90;99.90;;;;;;5044293;28;20222;-48
2022/06/19 09:30:40;;;;;;;5.57;1.63;;;19.00;99.90;;;;;;5033753;28;20211;-45
2022/06/19 09:33:12;;;;;;;4.13;1.30;;;19.00;99.90;;;;;;5035333;28;20267;-46
2022/06/19 09:35:42;;;;;;;4.27;1.70;;;19.00;99.90;;;;;;5032545;28;20195;-46
2022/06/19 09:38:15;;;;;;;5.23;1.87;;;18.90;99.90;;;;;;5042990;28;20203;-46
2022/06/19 09:40:46;;;;;;;5.67;2.00;;;18.70;99.90;;;;;;5037573;28;20223;-47
2022/06/19 09:43:22;;;;;;;4.67;1.83;;;18.60;99.90;;;;;;5042673;28;20211;-48
2022/06/19 09:45:55;;;;;;;5.27;2.00;;;18.50;99.90;;;;;;5042430;28;20218;-45
2022/06/19 09:48:26;;;;;;;9.90;2.27;;;18.20;99.90;;;;;;5030172;28;20203;-48
2022/06/19 09:51:00;;;;;;;7.03;2.40;;;17.90;99.90;;;;;;5042919;28;20717;-45
2022/06/19 09:53:35;;;;;;;8.83;2.20;;;17.80;99.90;;;;;;5039311;28;20750;-47
2022/06/19 09:56:10;;;;;;;4.80;1.60;;;17.70;99.90;;;;;;5027124;28;20649;-47
2022/06/19 09:58:42;;;;;;;4.50;1.63;;;17.60;99.90;;;;;;5040472;28;20275;-45
2022/06/19 10:01:11;;;;;;;4.33;1.87;;;17.60;99.90;;;;;;5043441;28;20226;-47
2022/06/19 10:03:41;;;;;;;5.03;2.30;;;17.50;99.90;;;;;;5034989;28;20258;-46
2022/06/19 10:06:13;;;;;;;6.60;2.20;;;17.50;99.90;;;;;;5028437;28;20230;-47
2022/06/19 10:08:45;;;;;;;5.90;2.30;;;17.40;99.90;;;;;;5040875;28;20245;-45
2022/06/19 10:11:16;;;;;;;9.77;2.00;;;17.40;99.90;;;;;;5033571;28;20230;-45
2022/06/19 10:13:49;;;;;;;5.07;1.70;;;17.40;99.90;;;;;;5041440;28;20199;-46
2022/06/19 10:16:34;;;;;;;7.20;2.17;;;17.30;99.90;;;;;;5041578;28;20206;-47
2022/06/19 10:19:13;;;;;;;8.03;2.70;;;17.40;99.90;;;;;;5043481;28;20682;-43
2022/06/19 10:24:38;;;;;;;9.13;2.37;;;17.30;99.90;;;;;;5031338;28;20228;-46
2022/06/19 10:27:13;;;;;;;8.77;2.47;;;17.30;99.90;;;;;;5026115;28;20624;-45
2022/06/19 10:29:49;;;;;;;8.43;2.03;;;17.30;99.90;;;;;;5040900;28;20915;-45
2022/06/19 10:32:47;;;;;;;6.30;2.40;;;17.40;99.90;;;;;;5041304;28;20223;-46
2022/06/19 10:35:22;;;;;;;11.07;2.17;;;17.30;99.90;;;;;;5031128;28;20671;-47
2022/06/19 10:38:06;;;;;;;7.33;2.40;;;17.20;99.90;;;;;;5040077;28;20203;-45
2022/06/19 10:40:43;;;;;;;9.97;2.20;;;17.20;99.90;;;;;;5039185;28;20325;-46
2022/06/19 10:43:23;;;;;;;5.73;2.23;;;17.10;99.90;;;;;;5032491;28;20207;-48
2022/06/19 10:45:52;;;;;;;5.70;2.13;;;17.20;99.90;;;;;;5036485;28;20302;-52
2022/06/19 10:48:26;;;;;;;6.53;2.27;;;17.30;99.90;;;;;;5034336;28;20218;-47
2022/06/19 10:51:18;;;;;;;7.83;2.07;;;17.30;99.90;;;;;;5023439;28;20219;-47
2022/06/19 10:54:17;;;;;;;9.50;2.47;;;17.30;99.90;;;;;;5040982;28;20207;-45
2022/06/19 10:56:50;;;;;;;5.80;2.03;;;17.30;99.90;;;;;;5021494;28;20211;-47
2022/06/19 10:59:17;;;;;;;11.00;2.20;;;17.20;99.90;;;;;;5044890;28;20199;-49
2022/06/19 11:04:44;;;;;;;7.73;2.20;;;17.20;99.90;;;;;;5039461;28;20191;-45
2022/06/19 11:07:16;;;;;;;7.23;2.20;;;17.20;99.90;;;;;;5027107;28;20214;-47
2022/06/19 11:09:47;;;;;;;6.90;2.00;;;17.20;99.90;;;;;;5044743;28;20340;-45
2022/06/19 11:12:21;;;;;;;11.53;2.30;;;17.20;99.90;;;;;;5036462;28;20281;-46
2022/06/19 11:14:51;;;;;;;5.97;2.63;;;17.20;99.90;;;;;;5038943;28;20213;-45
2022/06/19 11:17:31;;;;;;;6.70;2.70;;;17.30;99.90;;;;;;5044486;28;20211;-46
2022/06/19 11:20:21;;;;;;;10.53;3.13;;;17.20;99.90;;;;;;5046270;28;20199;-45
2022/06/19 11:22:50;;;;;;;12.87;3.13;;;17.30;99.90;;;;;;5031237;28;20828;-45
2022/06/19 11:25:31;;;;;;;8.13;2.67;;;17.20;99.90;;;;;;5043957;28;20219;-47
2022/06/19 11:28:02;;;;;;;8.10;2.33;;;17.20;99.90;;;;;;5038406;28;20671;-46
2022/06/19 11:30:33;;;;;;;7.50;1.97;;;17.20;99.90;;;;;;5042403;28;20458;-45
2022/06/19 11:33:02;;;;;;;10.97;2.40;;;17.20;99.90;;;;;;5046392;28;20195;-47
2022/06/19 11:35:39;;;;;;;10.43;2.63;;;17.20;99.90;;;;;;5035202;28;20233;-45
2022/06/19 11:38:07;;;;;;;8.33;2.27;;;17.20;99.90;;;;;;5031972;28;20203;-43
2022/06/19 11:40:37;;;;;;;4.87;2.07;;;17.10;99.90;;;;;;5042052;28;20220;-43
2022/06/19 11:43:06;;;;;;;7.07;2.47;;;17.10;99.90;;;;;;5039375;28;20212;-45
2022/06/19 11:45:34;;;;;;;11.70;2.50;;;17.10;99.90;;;;;;5041785;28;20222;-45
2022/06/19 11:48:07;;;;;;;12.40;2.83;;;17.10;99.90;;;;;;5046096;28;20203;-45
2022/06/19 11:50:49;;;;;;;7.13;2.70;;;17.10;99.90;;;;;;5036369;28;20924;-47
2022/06/19 11:53:22;;;;;;;10.27;2.43;;;17.10;99.90;;;;;;5029890;28;20206;-46
2022/06/19 11:55:50;;;;;;;6.97;2.37;;;17.10;99.90;;;;;;5042120;28;20195;-46
2022/06/19 11:58:26;;;;;;;7.77;2.50;;;17.00;99.90;;;;;;5040166;28;20564;-48
2022/06/19 12:01:06;;;;;;;8.97;3.07;;;17.00;99.90;;;;;;5044029;28;20219;-45
2022/06/19 12:03:40;;;;;;;11.03;2.87;;;17.00;99.90;;;;;;5040669;28;20968;-46
2022/06/19 12:06:11;;;;;;;10.37;2.83;;;16.90;99.90;;;;;;5040017;28;20696;-44
2022/06/19 12:08:41;;;;;;;5.10;2.60;;;16.90;99.90;;;;;;5025804;28;20196;-45
2022/06/19 12:11:09;;;;;;;9.83;2.53;;;16.80;99.90;;;;;;5045236;28;20268;-45
2022/06/19 12:13:39;;;;;;;10.50;3.10;;;16.70;99.90;;;;;;5042130;28;20920;-47
2022/06/19 12:16:12;;;;;;;12.30;3.23;;;16.60;99.90;;;;;;5033305;28;20203;-48
2022/06/19 12:18:39;;;;;;;9.80;3.50;;;16.60;99.90;;;;;;5043185;28;20222;-45
2022/06/19 12:21:19;;;;;;;6.77;2.57;;;16.60;99.90;;;;;;5045527;28;20715;-45
2022/06/19 12:23:57;;;;;;;10.63;2.80;;;16.50;99.90;;;;;;5029927;28;21698;-45
2022/06/19 12:26:32;;;;;;;11.37;3.33;;;16.40;99.90;;;;;;5041290;28;20223;-50
2022/06/19 12:29:06;;;;;;;9.97;3.07;;;16.30;99.90;;;;;;5039294;28;20699;-45
2022/06/19 12:31:38;;;;;;;9.30;2.87;;;16.30;99.90;;;;;;5031856;28;20223;-45
2022/06/19 12:34:17;;;;;;;14.10;3.37;;;16.40;99.90;;;;;;5044737;28;20206;-49
2022/06/19 12:36:45;;;;;;;11.37;3.00;;;16.30;99.90;;;;;;5043268;28;20202;-45
2022/06/19 12:39:18;;;;;;;10.13;3.40;;;16.30;99.90;;;;;;5039379;28;20203;-49
2022/06/19 12:41:56;;;;;;;8.27;2.97;;;16.30;99.90;;;;;;5038498;28;20215;-48
2022/06/19 12:44:34;;;;;;;8.20;2.90;;;16.30;99.90;;;;;;5041404;28;20199;-47
2022/06/19 12:47:13;;;;;;;9.60;2.70;;;16.30;99.90;;;;;;5028071;28;20269;-45
2022/06/19 12:50:06;;;;;;;10.50;3.43;;;16.20;99.90;;;;;;5042596;28;20201;-47
2022/06/19 12:52:42;;;;;;;13.00;3.53;;;16.20;99.90;;;;;;5040996;28;20978;-48
2022/06/19 12:55:36;;;;;;;9.87;3.13;;;16.20;99.90;;;;;;5035269;28;20199;-47
2022/06/19 12:58:21;;;;;;;8.77;3.13;;;16.10;99.90;;;;;;5040746;28;20671;-47
2022/06/19 13:00:51;;;;;;;8.20;3.20;;;16.10;99.90;;;;;;5043080;28;20227;-44
2022/06/19 13:03:42;;;;;;;7.33;3.00;;;16.10;99.90;;;;;;5032708;28;20207;-45
2022/06/19 13:06:23;;;;;;;7.70;3.43;;;16.10;99.90;;;;;;5039910;28;20211;-49
2022/06/19 13:09:03;;;;;;;10.17;3.90;;;16.10;99.90;;;;;;5042198;28;20668;-46
2022/06/19 13:11:41;;;;;;;7.70;3.03;;;16.10;99.90;;;;;;5026030;28;20931;-45
2022/06/19 13:14:35;;;;;;;9.33;3.10;;;16.10;99.90;;;;;;5038820;28;20199;-47
2022/06/19 13:17:10;;;;;;;7.70;2.97;;;16.00;99.90;;;;;;5042144;28;20203;-49